Terminal Aerodrome Forecast
Issued by NWS

Home | Current Version | Previous Version | Graphics & Text | Print | Product List | Glossary On
Versions: 1 2 3 4 5 6 7 8 9 10 11 12 13 14 15 16 17 18 19 20
000
FTUS43 KABR 201700 RRA
TAFPIR
TAF
KPIR 201741Z 2018/2118 15010KT P6SM SCT100 BKN250
     FM202100 13009KT P6SM -SHRA VCTS BKN070CB
     FM210100 14006KT P6SM BKN150
     FM210900 35008KT P6SM SKC=

USA.gov is the U.S. government's official web portal to all federal, state and local government web resources and services.